createdAt,value
2022-10-12T00:00:08.942Z,4.95
2022-10-12T00:05:41.053Z,4.71
2022-10-12T00:10:45.675Z,5.55
2022-10-12T00:15:49.609Z,5.85
2022-10-12T00:21:03.163Z,5.27
2022-10-12T00:26:09.578Z,5.32
2022-10-12T00:31:15.357Z,6.10
2022-10-12T00:36:22.857Z,5.44
2022-10-12T00:41:28.927Z,5.48
2022-10-12T00:46:37.255Z,5.93
2022-10-12T00:51:45.188Z,6.43
2022-10-12T00:56:49.905Z,5.87
2022-10-12T01:01:53.663Z,6.27
2022-10-12T01:06:59.019Z,5.74
2022-10-12T01:12:06.910Z,5.84
2022-10-12T01:17:23.052Z,6.22
2022-10-12T01:22:30.082Z,6.18
2022-10-12T01:27:47.656Z,6.80
2022-10-12T01:33:09.386Z,6.84
2022-10-12T01:38:29.801Z,6.41
2022-10-12T01:43:39.605Z,7.27
2022-10-12T01:48:47.288Z,7.09
2022-10-12T01:53:58.422Z,6.03
2022-10-12T01:59:10.060Z,5.71
2022-10-12T02:04:22.769Z,5.16
2022-10-12T02:09:29.562Z,6.92
2022-10-12T02:14:39.610Z,6.52
2022-10-12T02:19:49.908Z,5.99
2022-10-12T02:24:57.605Z,6.43
2022-10-12T02:30:01.581Z,6.52
2022-10-12T02:35:14.316Z,6.79
2022-10-12T02:40:25.127Z,6.70
2022-10-12T02:45:30.205Z,6.15
2022-10-12T02:50:35.945Z,6.20
2022-10-12T02:55:40.374Z,6.66
2022-10-12T03:00:44.212Z,6.53
2022-10-12T03:05:49.312Z,6.65
2022-10-12T03:10:53.181Z,6.56
2022-10-12T03:16:02.807Z,6.08
2022-10-12T03:21:08.108Z,5.67
2022-10-12T03:26:11.929Z,5.79
2022-10-12T03:31:15.801Z,5.34
2022-10-12T03:36:20.854Z,5.69
2022-10-12T03:41:24.641Z,5.26
2022-10-12T03:46:30.851Z,5.90
2022-10-12T03:51:35.979Z,5.99
2022-10-12T03:56:39.894Z,6.01
2022-10-12T04:01:43.608Z,6.10
2022-10-12T04:06:48.780Z,5.76
2022-10-12T04:11:52.554Z,5.85
2022-10-12T04:16:56.317Z,5.68
2022-10-12T04:22:01.474Z,5.81
2022-10-12T04:27:05.266Z,5.19
2022-10-12T04:32:12.491Z,5.41
2022-10-12T04:37:17.934Z,5.71
2022-10-12T04:42:21.647Z,5.70
2022-10-12T04:47:25.527Z,6.11
2022-10-12T04:52:30.609Z,6.39
2022-10-12T04:57:34.463Z,6.18
2022-10-12T05:02:38.362Z,6.30
2022-10-12T05:07:43.478Z,6.48
2022-10-12T05:12:47.362Z,6.02
2022-10-12T05:17:51.512Z,6.00
2022-10-12T05:22:58.235Z,6.27
2022-10-12T05:28:02.267Z,6.83
2022-10-12T05:33:06.468Z,7.16
2022-10-12T05:38:12.088Z,7.37
2022-10-12T05:43:15.850Z,7.52
2022-10-12T05:48:19.703Z,7.19
2022-10-12T05:53:24.941Z,7.37
2022-10-12T05:58:30.173Z,7.52
2022-10-12T06:03:35.192Z,7.48
2022-10-12T06:08:40.787Z,8.16
2022-10-12T06:13:45.361Z,9.04
2022-10-12T06:18:50.427Z,7.76
2022-10-12T06:23:55.666Z,9.13
2022-10-12T06:29:01.489Z,9.21
2022-10-12T06:34:07.258Z,9.35
2022-10-12T06:39:13.925Z,9.76
2022-10-12T06:44:17.667Z,9.45
2022-10-12T06:49:21.567Z,10.15
2022-10-12T06:54:26.856Z,9.83
2022-10-12T06:59:30.694Z,9.69
2022-10-12T07:04:34.726Z,10.84
2022-10-12T07:09:39.979Z,10.24
2022-10-12T07:14:43.785Z,10.07
2022-10-12T07:19:47.710Z,10.45
2022-10-12T07:24:53.077Z,10.40
2022-10-12T07:29:57.440Z,10.47
2022-10-12T07:35:01.355Z,11.40
2022-10-12T07:40:08.047Z,12.02
2022-10-12T07:45:12.157Z,12.33
2022-10-12T07:50:16.130Z,12.11
2022-10-12T07:55:23.800Z,12.14
2022-10-12T08:00:27.742Z,12.58
2022-10-12T08:05:31.794Z,12.79
2022-10-12T08:10:38.306Z,13.44
2022-10-12T08:15:42.217Z,13.10
2022-10-12T08:20:46.067Z,13.52
2022-10-12T08:25:55.759Z,13.60
2022-10-12T08:30:59.749Z,13.69
2022-10-12T08:36:05.246Z,14.04
2022-10-12T08:41:24.782Z,14.67
2022-10-12T08:46:30.459Z,14.49
2022-10-12T08:51:45.315Z,15.04
2022-10-12T08:56:54.803Z,15.04
2022-10-12T09:02:06.607Z,14.98
2022-10-12T09:07:17.045Z,15.77
2022-10-12T09:12:34.745Z,15.80
2022-10-12T09:17:43.606Z,15.70
2022-10-12T09:22:50.945Z,14.49
2022-10-12T09:28:07.526Z,14.90
2022-10-12T09:33:19.939Z,14.30
2022-10-12T09:38:24.586Z,15.47
2022-10-12T09:43:29.940Z,15.22
2022-10-12T09:48:33.756Z,15.42
2022-10-12T09:53:44.636Z,14.84
2022-10-12T09:58:54.826Z,14.76
2022-10-12T10:04:15.146Z,14.34
2022-10-12T10:09:30.587Z,15.13
2022-10-12T10:14:37.136Z,15.36
2022-10-12T10:19:41.276Z,15.00
2022-10-12T10:24:50.977Z,14.81
2022-10-12T10:30:25.501Z,13.83
2022-10-12T10:35:33.302Z,14.24
2022-10-12T10:40:37.265Z,14.66
2022-10-12T10:51:00.425Z,14.89
2022-10-12T10:56:09.444Z,15.54
2022-10-12T11:01:23.866Z,15.93
2022-10-12T11:06:38.358Z,15.26
2022-10-12T11:11:44.978Z,17.17
2022-10-12T11:16:54.228Z,16.29
2022-10-12T11:22:02.300Z,16.11
2022-10-12T11:27:12.493Z,15.74
2022-10-12T11:32:26.713Z,17.20
2022-10-12T11:37:39.647Z,16.77
2022-10-12T11:42:43.922Z,18.05
2022-10-12T11:47:53.409Z,20.51
2022-10-12T11:52:59.477Z,21.01
2022-10-12T11:58:13.735Z,19.81
2022-10-12T12:03:27.645Z,21.36
2022-10-12T12:08:59.039Z,22.78
2022-10-12T12:14:35.984Z,23.66
2022-10-12T12:19:43.382Z,21.87
2022-10-12T12:25:04.294Z,18.54
2022-10-12T12:30:28.944Z,17.43
2022-10-12T12:35:38.912Z,16.84
2022-10-12T12:40:55.097Z,17.44
2022-10-12T12:46:00.792Z,16.89
2022-10-12T12:51:08.668Z,16.79
2022-10-12T12:56:20.783Z,16.79
2022-10-12T13:01:45.403Z,17.51
2022-10-12T13:07:39.819Z,19.05
2022-10-12T13:13:25.746Z,20.97
2022-10-12T13:18:49.844Z,20.53
2022-10-12T13:24:05.895Z,21.65
2022-10-12T13:29:22.787Z,20.83
2022-10-12T13:34:32.621Z,19.63
2022-10-12T13:39:40.913Z,19.32
2022-10-12T13:44:48.865Z,20.55
2022-10-12T13:49:54.848Z,21.16
2022-10-12T13:54:59.384Z,20.49
2022-10-12T14:00:13.520Z,20.90
2022-10-12T14:05:19.866Z,20.12
2022-10-12T14:10:41.732Z,18.96
2022-10-12T14:15:47.857Z,19.35
2022-10-12T14:21:12.929Z,19.10
2022-10-12T14:26:37.045Z,20.07
2022-10-12T14:31:53.654Z,19.39
2022-10-12T14:37:05.972Z,19.64
2022-10-12T14:42:26.022Z,19.11
2022-10-12T14:47:48.094Z,18.99
2022-10-12T14:53:08.396Z,18.58
2022-10-12T14:58:25.922Z,18.31
2022-10-12T15:03:33.103Z,17.51
2022-10-12T15:08:46.816Z,17.58
2022-10-12T15:13:52.993Z,16.98
2022-10-12T15:19:02.748Z,16.79
2022-10-12T15:24:16.524Z,16.27
2022-10-12T15:29:23.199Z,15.31
2022-10-12T15:34:30.508Z,15.28
2022-10-12T15:39:37.494Z,14.98
2022-10-12T15:44:45.265Z,14.43
2022-10-12T15:49:53.057Z,13.98
2022-10-12T15:55:05.758Z,13.79
2022-10-12T16:00:16.725Z,13.48
2022-10-12T16:05:26.051Z,13.64
2022-10-12T16:10:43.043Z,13.31
2022-10-12T16:15:48.926Z,12.93
2022-10-12T16:20:57.527Z,12.63
2022-10-12T16:26:04.486Z,12.30
2022-10-12T16:31:12.430Z,12.25
2022-10-12T16:36:18.531Z,11.92
2022-10-12T16:41:22.533Z,11.87
2022-10-12T16:46:26.559Z,11.06
2022-10-12T16:51:31.953Z,9.66
2022-10-12T16:56:39.404Z,9.16
2022-10-12T17:01:44.193Z,8.99
2022-10-12T17:06:49.762Z,8.95
2022-10-12T17:11:53.567Z,8.41
2022-10-12T17:16:58.045Z,8.45
2022-10-12T17:22:06.593Z,7.98
2022-10-12T17:27:14.606Z,9.15
2022-10-12T17:32:19.108Z,8.22
2022-10-12T17:37:25.089Z,7.69
2022-10-12T17:42:29.639Z,7.83
2022-10-12T17:47:33.577Z,8.15
2022-10-12T17:52:48.003Z,8.85
2022-10-12T17:57:52.101Z,7.79
2022-10-12T18:02:55.990Z,6.74
2022-10-12T18:08:01.253Z,7.75
2022-10-12T18:13:05.214Z,7.79
2022-10-12T18:18:14.276Z,7.68
2022-10-12T18:23:21.156Z,7.00
2022-10-12T18:28:25.156Z,6.69
2022-10-12T18:33:30.231Z,6.61
2022-10-12T18:38:35.570Z,6.25
2022-10-12T18:43:39.761Z,6.39
2022-10-12T18:48:43.961Z,6.42
2022-10-12T18:53:49.510Z,6.25
2022-10-12T18:58:54.187Z,5.93
2022-10-12T19:04:00.197Z,6.17
2022-10-12T19:09:06.023Z,6.11
2022-10-12T19:14:14.215Z,6.22
2022-10-12T19:19:21.378Z,7.02
2022-10-12T19:24:27.201Z,6.58
2022-10-12T19:29:31.412Z,6.71
2022-10-12T19:34:35.304Z,6.25
2022-10-12T19:39:44.743Z,5.92
2022-10-12T19:44:49.004Z,6.71
2022-10-12T19:49:56.456Z,7.44
2022-10-12T19:55:01.843Z,6.98
2022-10-12T20:00:08.783Z,6.83
2022-10-12T20:05:16.655Z,6.00
2022-10-12T20:10:22.138Z,6.60
2022-10-12T20:15:26.118Z,6.76
2022-10-12T20:20:30.157Z,7.70
2022-10-12T20:25:35.591Z,5.91
2022-10-12T20:30:39.932Z,5.38
2022-10-12T20:35:48.132Z,5.86
2022-10-12T20:41:02.605Z,6.27
2022-10-12T20:46:08.255Z,6.61
2022-10-12T20:51:17.922Z,6.49
2022-10-12T20:56:23.159Z,6.57
2022-10-12T21:01:28.400Z,5.69
2022-10-12T21:06:32.750Z,6.08
2022-10-12T21:11:38.496Z,6.38
2022-10-12T21:16:42.908Z,7.05
2022-10-12T21:21:47.530Z,7.55
2022-10-12T21:26:53.356Z,7.78
2022-10-12T21:31:57.556Z,7.55
2022-10-12T21:37:01.489Z,6.98
2022-10-12T21:42:07.129Z,7.48
2022-10-12T21:47:17.303Z,6.37
2022-10-12T21:52:21.995Z,5.74
2022-10-12T21:57:28.807Z,5.92
2022-10-12T22:02:32.631Z,6.03
2022-10-12T22:07:36.538Z,5.19
2022-10-12T22:12:41.832Z,5.83
2022-10-12T22:17:45.699Z,5.91
2022-10-12T22:22:49.531Z,4.99
2022-10-12T22:27:54.926Z,5.12
2022-10-12T22:32:58.680Z,5.00
2022-10-12T22:38:02.524Z,6.00
2022-10-12T22:43:07.610Z,6.20
2022-10-12T22:48:11.264Z,6.31
2022-10-12T22:53:16.144Z,6.49
2022-10-12T22:58:21.496Z,6.19
2022-10-12T23:03:25.304Z,4.80
2022-10-12T23:08:29.906Z,4.96
2022-10-12T23:13:40.766Z,5.59
2022-10-12T23:18:44.695Z,4.87
2022-10-12T23:23:48.546Z,4.71
2022-10-12T23:28:54.546Z,5.17
2022-10-12T23:33:59.232Z,5.39
2022-10-12T23:39:05.737Z,5.12
2022-10-12T23:44:11.355Z,5.24
2022-10-12T23:49:15.065Z,4.98
2022-10-12T23:54:18.980Z,4.22
2022-10-12T23:59:24.865Z,4.07
